sensor_id;sensor_type;location;lat;lon;timestamp;P1;durP1;ratioP1;P2;durP2;ratioP2
29302;SDS011;60019;45.556;12.004;2023-02-28T00:03:16;6.63;;;4.03;;
29302;SDS011;60019;45.556;12.004;2023-02-28T00:09:18;7.40;;;4.47;;
29302;SDS011;60019;45.556;12.004;2023-02-28T00:15:20;6.32;;;3.90;;
29302;SDS011;60019;45.556;12.004;2023-02-28T00:21:23;6.45;;;4.32;;
29302;SDS011;60019;45.556;12.004;2023-02-28T00:27:25;7.97;;;4.85;;
29302;SDS011;60019;45.556;12.004;2023-02-28T00:33:27;6.35;;;4.72;;
29302;SDS011;60019;45.556;12.004;2023-02-28T00:39:30;5.05;;;4.30;;
29302;SDS011;60019;45.556;12.004;2023-02-28T00:45:31;7.55;;;4.72;;
29302;SDS011;60019;45.556;12.004;2023-02-28T00:51:33;8.07;;;4.50;;
29302;SDS011;60019;45.556;12.004;2023-02-28T00:57:35;6.82;;;3.60;;
29302;SDS011;60019;45.556;12.004;2023-02-28T01:03:38;5.38;;;3.85;;
29302;SDS011;60019;45.556;12.004;2023-02-28T01:09:40;6.93;;;4.43;;
29302;SDS011;60019;45.556;12.004;2023-02-28T01:15:46;8.40;;;4.00;;
29302;SDS011;60019;45.556;12.004;2023-02-28T01:21:50;5.57;;;3.90;;
29302;SDS011;60019;45.556;12.004;2023-02-28T01:27:52;5.80;;;3.88;;
29302;SDS011;60019;45.556;12.004;2023-02-28T01:33:54;5.97;;;3.80;;
29302;SDS011;60019;45.556;12.004;2023-02-28T01:39:56;4.80;;;3.75;;
29302;SDS011;60019;45.556;12.004;2023-02-28T01:45:58;4.60;;;3.67;;
29302;SDS011;60019;45.556;12.004;2023-02-28T01:52:00;5.43;;;3.53;;
29302;SDS011;60019;45.556;12.004;2023-02-28T01:58:02;5.63;;;4.30;;
29302;SDS011;60019;45.556;12.004;2023-02-28T02:04:05;8.70;;;6.57;;
29302;SDS011;60019;45.556;12.004;2023-02-28T02:10:18;9.27;;;8.38;;
29302;SDS011;60019;45.556;12.004;2023-02-28T02:47:34;7.65;;;4.43;;
29302;SDS011;60019;45.556;12.004;2023-02-28T02:53:39;5.00;;;4.00;;
29302;SDS011;60019;45.556;12.004;2023-02-28T02:59:42;3.75;;;3.40;;
29302;SDS011;60019;45.556;12.004;2023-02-28T03:05:46;5.15;;;3.67;;
29302;SDS011;60019;45.556;12.004;2023-02-28T03:11:48;5.78;;;4.10;;
29302;SDS011;60019;45.556;12.004;2023-02-28T03:23:56;8.35;;;4.43;;
29302;SDS011;60019;45.556;12.004;2023-02-28T03:30:02;8.52;;;4.13;;
29302;SDS011;60019;45.556;12.004;2023-02-28T03:36:07;7.57;;;4.43;;
29302;SDS011;60019;45.556;12.004;2023-02-28T03:42:14;6.47;;;3.75;;
29302;SDS011;60019;45.556;12.004;2023-02-28T03:48:22;5.43;;;3.53;;
29302;SDS011;60019;45.556;12.004;2023-02-28T03:54:27;5.45;;;4.22;;
29302;SDS011;60019;45.556;12.004;2023-02-28T04:00:35;4.10;;;3.13;;
29302;SDS011;60019;45.556;12.004;2023-02-28T04:06:39;4.65;;;3.63;;
29302;SDS011;60019;45.556;12.004;2023-02-28T04:43:59;7.03;;;4.13;;
29302;SDS011;60019;45.556;12.004;2023-02-28T04:50:02;5.78;;;3.97;;
29302;SDS011;60019;45.556;12.004;2023-02-28T04:56:04;9.02;;;4.45;;
29302;SDS011;60019;45.556;12.004;2023-02-28T05:02:06;6.07;;;4.22;;
29302;SDS011;60019;45.556;12.004;2023-02-28T05:08:08;5.65;;;3.92;;
29302;SDS011;60019;45.556;12.004;2023-02-28T05:14:13;5.88;;;4.10;;
29302;SDS011;60019;45.556;12.004;2023-02-28T05:20:15;4.38;;;3.67;;
29302;SDS011;60019;45.556;12.004;2023-02-28T05:26:17;5.88;;;4.30;;
29302;SDS011;60019;45.556;12.004;2023-02-28T05:32:19;5.65;;;4.50;;
29302;SDS011;60019;45.556;12.004;2023-02-28T05:38:21;10.60;;;5.10;;
29302;SDS011;60019;45.556;12.004;2023-02-28T05:44:23;7.10;;;4.85;;
29302;SDS011;60019;45.556;12.004;2023-02-28T05:50:25;7.63;;;5.55;;
29302;SDS011;60019;45.556;12.004;2023-02-28T05:56:27;9.45;;;5.82;;
29302;SDS011;60019;45.556;12.004;2023-02-28T06:02:29;7.70;;;4.75;;
29302;SDS011;60019;45.556;12.004;2023-02-28T06:08:31;5.85;;;4.25;;
29302;SDS011;60019;45.556;12.004;2023-02-28T06:14:33;8.05;;;5.53;;
29302;SDS011;60019;45.556;12.004;2023-02-28T06:20:35;6.65;;;5.35;;
29302;SDS011;60019;45.556;12.004;2023-02-28T06:26:37;9.20;;;5.50;;
29302;SDS011;60019;45.556;12.004;2023-02-28T06:32:38;7.47;;;5.25;;
29302;SDS011;60019;45.556;12.004;2023-02-28T06:38:40;9.77;;;6.50;;
29302;SDS011;60019;45.556;12.004;2023-02-28T06:44:42;12.45;;;6.78;;
29302;SDS011;60019;45.556;12.004;2023-02-28T06:50:44;11.55;;;6.57;;
29302;SDS011;60019;45.556;12.004;2023-02-28T06:56:46;9.40;;;5.95;;
29302;SDS011;60019;45.556;12.004;2023-02-28T07:02:48;10.90;;;5.65;;
29302;SDS011;60019;45.556;12.004;2023-02-28T07:08:50;12.05;;;5.15;;
29302;SDS011;60019;45.556;12.004;2023-02-28T07:14:53;8.27;;;5.63;;
29302;SDS011;60019;45.556;12.004;2023-02-28T07:20:56;9.10;;;5.10;;
29302;SDS011;60019;45.556;12.004;2023-02-28T07:26:58;9.25;;;5.90;;
29302;SDS011;60019;45.556;12.004;2023-02-28T07:33:00;8.43;;;5.10;;
29302;SDS011;60019;45.556;12.004;2023-02-28T07:39:02;10.57;;;5.80;;
29302;SDS011;60019;45.556;12.004;2023-02-28T07:45:05;11.18;;;6.13;;
29302;SDS011;60019;45.556;12.004;2023-02-28T07:51:07;7.53;;;5.13;;
29302;SDS011;60019;45.556;12.004;2023-02-28T07:57:09;8.35;;;5.00;;
29302;SDS011;60019;45.556;12.004;2023-02-28T08:03:11;9.60;;;5.28;;
29302;SDS011;60019;45.556;12.004;2023-02-28T08:09:13;9.25;;;5.50;;
29302;SDS011;60019;45.556;12.004;2023-02-28T08:15:16;9.95;;;5.93;;
29302;SDS011;60019;45.556;12.004;2023-02-28T08:21:18;8.82;;;5.10;;
29302;SDS011;60019;45.556;12.004;2023-02-28T08:27:20;7.90;;;5.60;;
29302;SDS011;60019;45.556;12.004;2023-02-28T08:33:22;11.27;;;5.50;;
29302;SDS011;60019;45.556;12.004;2023-02-28T08:39:24;10.68;;;5.70;;
29302;SDS011;60019;45.556;12.004;2023-02-28T08:45:26;11.10;;;6.07;;
29302;SDS011;60019;45.556;12.004;2023-02-28T08:51:28;9.23;;;5.80;;
29302;SDS011;60019;45.556;12.004;2023-02-28T08:57:30;8.48;;;5.88;;
29302;SDS011;60019;45.556;12.004;2023-02-28T09:03:32;12.07;;;6.07;;
29302;SDS011;60019;45.556;12.004;2023-02-28T09:09:34;8.98;;;4.97;;
29302;SDS011;60019;45.556;12.004;2023-02-28T09:15:39;6.45;;;4.97;;
29302;SDS011;60019;45.556;12.004;2023-02-28T09:21:41;8.77;;;5.10;;
29302;SDS011;60019;45.556;12.004;2023-02-28T09:27:43;6.90;;;5.18;;
29302;SDS011;60019;45.556;12.004;2023-02-28T09:33:49;11.10;;;5.90;;
29302;SDS011;60019;45.556;12.004;2023-02-28T09:39:52;10.07;;;6.32;;
29302;SDS011;60019;45.556;12.004;2023-02-28T09:45:59;10.98;;;5.47;;
29302;SDS011;60019;45.556;12.004;2023-02-28T09:52:03;8.35;;;5.38;;
29302;SDS011;60019;45.556;12.004;2023-02-28T09:58:08;9.18;;;4.57;;
29302;SDS011;60019;45.556;12.004;2023-02-28T10:04:28;8.48;;;5.75;;
29302;SDS011;60019;45.556;12.004;2023-02-28T10:16:43;9.30;;;5.80;;
29302;SDS011;60019;45.556;12.004;2023-02-28T10:29:08;9.57;;;5.80;;
29302;SDS011;60019;45.556;12.004;2023-02-28T10:41:17;7.82;;;5.07;;
29302;SDS011;60019;45.556;12.004;2023-02-28T10:47:28;5.28;;;4.32;;
29302;SDS011;60019;45.556;12.004;2023-02-28T10:53:31;7.05;;;4.65;;
29302;SDS011;60019;45.556;12.004;2023-02-28T10:59:33;7.88;;;4.75;;
29302;SDS011;60019;45.556;12.004;2023-02-28T11:05:36;5.55;;;4.47;;
29302;SDS011;60019;45.556;12.004;2023-02-28T11:11:45;7.03;;;4.82;;
29302;SDS011;60019;45.556;12.004;2023-02-28T11:18:15;6.13;;;4.27;;
29302;SDS011;60019;45.556;12.004;2023-02-28T11:36:36;8.55;;;5.10;;
29302;SDS011;60019;45.556;12.004;2023-02-28T11:55:11;6.95;;;4.90;;
29302;SDS011;60019;45.556;12.004;2023-02-28T12:13:37;8.52;;;4.50;;
29302;SDS011;60019;45.556;12.004;2023-02-28T12:32:13;7.43;;;4.20;;
29302;SDS011;60019;45.556;12.004;2023-02-28T12:38:22;5.85;;;3.88;;
29302;SDS011;60019;45.556;12.004;2023-02-28T12:44:30;7.88;;;4.72;;
29302;SDS011;60019;45.556;12.004;2023-02-28T12:50:34;31.40;;;15.00;;
29302;SDS011;60019;45.556;12.004;2023-02-28T13:03:08;15.75;;;8.95;;
29302;SDS011;60019;45.556;12.004;2023-02-28T13:09:16;24.60;;;13.55;;
29302;SDS011;60019;45.556;12.004;2023-02-28T13:15:23;16.33;;;9.43;;
29302;SDS011;60019;45.556;12.004;2023-02-28T13:21:29;12.48;;;7.57;;
29302;SDS011;60019;45.556;12.004;2023-02-28T13:27:32;11.70;;;6.60;;
29302;SDS011;60019;45.556;12.004;2023-02-28T13:34:04;8.27;;;5.82;;
29302;SDS011;60019;45.556;12.004;2023-02-28T13:46:12;10.25;;;5.60;;
29302;SDS011;60019;45.556;12.004;2023-02-28T13:52:18;10.02;;;6.00;;
29302;SDS011;60019;45.556;12.004;2023-02-28T14:10:44;8.52;;;4.80;;
29302;SDS011;60019;45.556;12.004;2023-02-28T14:16:47;17.20;;;8.68;;
29302;SDS011;60019;45.556;12.004;2023-02-28T14:23:06;14.27;;;7.90;;
29302;SDS011;60019;45.556;12.004;2023-02-28T14:47:40;8.30;;;4.95;;
29302;SDS011;60019;45.556;12.004;2023-02-28T14:53:44;9.30;;;5.18;;
29302;SDS011;60019;45.556;12.004;2023-02-28T14:59:56;9.35;;;4.82;;
29302;SDS011;60019;45.556;12.004;2023-02-28T15:11:59;6.43;;;4.65;;
29302;SDS011;60019;45.556;12.004;2023-02-28T15:18:01;8.10;;;4.75;;
29302;SDS011;60019;45.556;12.004;2023-02-28T15:30:12;9.15;;;4.85;;
29302;SDS011;60019;45.556;12.004;2023-02-28T15:36:17;8.43;;;5.05;;
29302;SDS011;60019;45.556;12.004;2023-02-28T15:42:22;6.72;;;4.65;;
29302;SDS011;60019;45.556;12.004;2023-02-28T15:54:28;7.25;;;5.00;;
29302;SDS011;60019;45.556;12.004;2023-02-28T16:00:30;8.38;;;4.50;;
29302;SDS011;60019;45.556;12.004;2023-02-28T16:06:36;11.40;;;10.23;;
29302;SDS011;60019;45.556;12.004;2023-02-28T16:12:39;10.98;;;7.85;;
29302;SDS011;60019;45.556;12.004;2023-02-28T16:18:41;12.30;;;6.85;;
29302;SDS011;60019;45.556;12.004;2023-02-28T16:24:43;8.10;;;6.13;;
29302;SDS011;60019;45.556;12.004;2023-02-28T16:30:45;7.45;;;4.93;;
29302;SDS011;60019;45.556;12.004;2023-02-28T16:36:47;10.55;;;6.15;;
29302;SDS011;60019;45.556;12.004;2023-02-28T16:42:50;9.23;;;5.45;;
29302;SDS011;60019;45.556;12.004;2023-02-28T16:48:52;8.02;;;5.28;;
29302;SDS011;60019;45.556;12.004;2023-02-28T16:54:54;8.70;;;5.10;;
29302;SDS011;60019;45.556;12.004;2023-02-28T17:00:56;7.53;;;4.70;;
29302;SDS011;60019;45.556;12.004;2023-02-28T17:06:58;11.40;;;5.93;;
29302;SDS011;60019;45.556;12.004;2023-02-28T17:13:00;9.68;;;6.05;;
29302;SDS011;60019;45.556;12.004;2023-02-28T17:19:03;11.65;;;7.15;;
29302;SDS011;60019;45.556;12.004;2023-02-28T17:25:05;12.50;;;8.02;;
29302;SDS011;60019;45.556;12.004;2023-02-28T17:31:07;13.77;;;8.35;;
29302;SDS011;60019;45.556;12.004;2023-02-28T17:37:09;14.55;;;8.75;;
29302;SDS011;60019;45.556;12.004;2023-02-28T17:43:11;12.93;;;8.25;;
29302;SDS011;60019;45.556;12.004;2023-02-28T17:49:13;14.93;;;9.15;;
29302;SDS011;60019;45.556;12.004;2023-02-28T17:55:15;13.55;;;8.10;;
29302;SDS011;60019;45.556;12.004;2023-02-28T18:01:17;13.10;;;7.38;;
29302;SDS011;60019;45.556;12.004;2023-02-28T18:07:20;11.05;;;8.38;;
29302;SDS011;60019;45.556;12.004;2023-02-28T18:13:23;12.30;;;8.43;;
29302;SDS011;60019;45.556;12.004;2023-02-28T18:19:25;12.77;;;8.75;;
29302;SDS011;60019;45.556;12.004;2023-02-28T18:25:26;12.68;;;8.30;;
29302;SDS011;60019;45.556;12.004;2023-02-28T18:31:28;12.23;;;8.43;;
29302;SDS011;60019;45.556;12.004;2023-02-28T18:37:32;10.75;;;7.38;;
29302;SDS011;60019;45.556;12.004;2023-02-28T18:43:34;9.13;;;7.80;;
29302;SDS011;60019;45.556;12.004;2023-02-28T18:49:38;10.80;;;8.18;;
29302;SDS011;60019;45.556;12.004;2023-02-28T18:55:39;11.40;;;7.53;;
29302;SDS011;60019;45.556;12.004;2023-02-28T19:01:41;10.82;;;8.10;;
29302;SDS011;60019;45.556;12.004;2023-02-28T19:07:46;10.55;;;7.88;;
29302;SDS011;60019;45.556;12.004;2023-02-28T19:13:48;13.55;;;9.73;;
29302;SDS011;60019;45.556;12.004;2023-02-28T19:19:50;19.20;;;10.70;;
29302;SDS011;60019;45.556;12.004;2023-02-28T19:25:52;19.55;;;11.02;;
29302;SDS011;60019;45.556;12.004;2023-02-28T19:31:55;15.70;;;10.88;;
29302;SDS011;60019;45.556;12.004;2023-02-28T19:37:57;36.53;;;20.48;;
29302;SDS011;60019;45.556;12.004;2023-02-28T19:43:59;27.15;;;17.65;;
29302;SDS011;60019;45.556;12.004;2023-02-28T19:50:00;23.45;;;15.23;;
29302;SDS011;60019;45.556;12.004;2023-02-28T19:56:02;20.95;;;13.48;;
29302;SDS011;60019;45.556;12.004;2023-02-28T20:02:05;21.02;;;12.98;;
29302;SDS011;60019;45.556;12.004;2023-02-28T20:14:50;21.73;;;13.00;;
29302;SDS011;60019;45.556;12.004;2023-02-28T20:20:51;18.27;;;12.65;;
29302;SDS011;60019;45.556;12.004;2023-02-28T20:26:54;17.92;;;11.63;;
29302;SDS011;60019;45.556;12.004;2023-02-28T20:32:57;14.15;;;9.68;;
29302;SDS011;60019;45.556;12.004;2023-02-28T20:38:59;13.98;;;9.57;;
29302;SDS011;60019;45.556;12.004;2023-02-28T20:45:01;14.82;;;10.38;;
29302;SDS011;60019;45.556;12.004;2023-02-28T20:51:03;21.33;;;13.48;;
29302;SDS011;60019;45.556;12.004;2023-02-28T20:57:05;19.70;;;12.55;;
29302;SDS011;60019;45.556;12.004;2023-02-28T21:03:07;26.73;;;14.40;;
29302;SDS011;60019;45.556;12.004;2023-02-28T21:09:09;21.20;;;12.15;;
29302;SDS011;60019;45.556;12.004;2023-02-28T21:15:11;19.75;;;12.98;;
29302;SDS011;60019;45.556;12.004;2023-02-28T21:21:14;18.90;;;13.32;;
29302;SDS011;60019;45.556;12.004;2023-02-28T21:27:17;18.67;;;12.63;;
29302;SDS011;60019;45.556;12.004;2023-02-28T21:33:19;26.27;;;15.82;;
29302;SDS011;60019;45.556;12.004;2023-02-28T21:39:22;75.40;;;38.70;;
29302;SDS011;60019;45.556;12.004;2023-02-28T21:45:29;72.80;;;36.67;;
29302;SDS011;60019;45.556;12.004;2023-02-28T21:51:31;63.80;;;31.70;;
29302;SDS011;60019;45.556;12.004;2023-02-28T21:57:33;46.47;;;25.80;;
29302;SDS011;60019;45.556;12.004;2023-02-28T22:03:35;36.60;;;20.95;;
29302;SDS011;60019;45.556;12.004;2023-02-28T22:17:02;22.50;;;13.80;;
29302;SDS011;60019;45.556;12.004;2023-02-28T22:23:04;21.35;;;13.38;;
29302;SDS011;60019;45.556;12.004;2023-02-28T22:29:06;18.98;;;11.60;;
29302;SDS011;60019;45.556;12.004;2023-02-28T22:35:08;17.85;;;11.32;;
29302;SDS011;60019;45.556;12.004;2023-02-28T22:41:10;17.80;;;10.82;;
29302;SDS011;60019;45.556;12.004;2023-02-28T22:47:11;16.65;;;10.05;;
29302;SDS011;60019;45.556;12.004;2023-02-28T22:53:13;15.23;;;10.15;;
29302;SDS011;60019;45.556;12.004;2023-02-28T22:59:15;12.95;;;8.90;;
29302;SDS011;60019;45.556;12.004;2023-02-28T23:05:17;13.73;;;9.05;;
29302;SDS011;60019;45.556;12.004;2023-02-28T23:11:20;11.18;;;7.60;;
29302;SDS011;60019;45.556;12.004;2023-02-28T23:17:22;14.13;;;8.80;;
29302;SDS011;60019;45.556;12.004;2023-02-28T23:23:28;12.93;;;8.00;;
29302;SDS011;60019;45.556;12.004;2023-02-28T23:29:30;12.77;;;8.15;;
29302;SDS011;60019;45.556;12.004;2023-02-28T23:35:32;14.27;;;8.85;;
29302;SDS011;60019;45.556;12.004;2023-02-28T23:41:34;10.60;;;7.68;;
29302;SDS011;60019;45.556;12.004;2023-02-28T23:47:36;13.02;;;8.52;;
29302;SDS011;60019;45.556;12.004;2023-02-28T23:53:39;15.25;;;8.75;;
29302;SDS011;60019;45.556;12.004;2023-02-28T23:59:41;14.15;;;8.15;;
